createdAt,value
2023-05-25T00:02:27.080Z,1.73
2023-05-25T00:04:54.709Z,1.85
2023-05-25T00:07:22.265Z,1.83
2023-05-25T00:09:49.830Z,2.03
2023-05-25T00:12:17.369Z,1.88
2023-05-25T00:14:44.936Z,1.80
2023-05-25T00:17:12.517Z,1.77
2023-05-25T00:19:42.348Z,2.10
2023-05-25T00:22:10.499Z,1.77
2023-05-25T00:24:38.071Z,1.90
2023-05-25T00:27:07.023Z,1.70
2023-05-25T00:29:34.570Z,2.03
2023-05-25T00:32:02.150Z,1.90
2023-05-25T00:34:29.713Z,1.75
2023-05-25T00:36:57.283Z,1.70
2023-05-25T00:39:24.990Z,2.08
2023-05-25T00:41:52.576Z,1.58
2023-05-25T00:44:21.698Z,1.90
2023-05-25T00:46:49.814Z,2.15
2023-05-25T00:49:17.458Z,1.90
2023-05-25T00:51:46.595Z,1.75
2023-05-25T00:54:15.981Z,2.00
2023-05-25T00:56:43.572Z,1.60
2023-05-25T00:59:11.241Z,1.80
2023-05-25T01:01:40.087Z,1.73
2023-05-25T01:04:08.184Z,1.90
2023-05-25T01:06:35.792Z,2.03
2023-05-25T01:09:03.507Z,1.75
2023-05-25T01:11:31.134Z,1.73
2023-05-25T01:13:58.709Z,1.70
2023-05-25T01:16:26.505Z,1.70
2023-05-25T01:18:54.179Z,1.90
2023-05-25T01:21:22.054Z,2.00
2023-05-25T01:23:49.705Z,1.75
2023-05-25T01:26:17.284Z,1.60
2023-05-25T01:28:46.468Z,1.60
2023-05-25T01:31:14.052Z,1.80
2023-05-25T01:33:41.652Z,1.90
2023-05-25T01:36:09.228Z,1.88
2023-05-25T01:38:36.837Z,1.73
2023-05-25T01:41:04.424Z,1.92
2023-05-25T01:43:31.977Z,1.95
2023-05-25T01:45:59.705Z,1.75
2023-05-25T01:48:27.388Z,1.60
2023-05-25T01:50:55.026Z,1.75
2023-05-25T01:53:22.734Z,1.90
2023-05-25T01:55:50.729Z,1.70
2023-05-25T01:58:18.333Z,2.00
2023-05-25T02:00:46.011Z,1.90
2023-05-25T02:03:14.025Z,1.83
2023-05-25T02:05:41.928Z,2.08
2023-05-25T02:08:09.618Z,1.50
2023-05-25T02:10:37.187Z,1.77
2023-05-25T02:13:04.763Z,1.85
2023-05-25T02:15:32.351Z,1.70
2023-05-25T02:18:00.114Z,2.00
2023-05-25T02:20:28.277Z,1.65
2023-05-25T02:22:56.019Z,1.45
2023-05-25T02:25:23.586Z,1.70
2023-05-25T02:27:51.260Z,1.80
2023-05-25T02:30:18.986Z,1.90
2023-05-25T02:32:46.673Z,1.90
2023-05-25T02:35:14.413Z,1.83
2023-05-25T02:37:41.988Z,2.08
2023-05-25T02:40:10.768Z,1.90
2023-05-25T02:42:38.368Z,1.58
2023-05-25T02:45:06.507Z,1.80
2023-05-25T02:47:34.154Z,1.85
2023-05-25T02:50:01.758Z,1.70
2023-05-25T02:52:31.797Z,1.70
2023-05-25T02:54:59.360Z,1.92
2023-05-25T02:57:26.951Z,2.00
2023-05-25T02:59:54.500Z,2.08
2023-05-25T03:02:25.649Z,1.85
2023-05-25T03:04:54.148Z,1.60
2023-05-25T03:07:21.761Z,2.13
2023-05-25T03:09:49.313Z,2.13
2023-05-25T03:12:17.183Z,1.80
2023-05-25T03:14:44.798Z,1.90
2023-05-25T03:17:12.443Z,2.22
2023-05-25T03:19:40.029Z,1.60
2023-05-25T03:22:08.634Z,1.60
2023-05-25T03:24:36.264Z,1.70
2023-05-25T03:27:03.858Z,2.00
2023-05-25T03:29:31.436Z,1.90
2023-05-25T03:31:59.007Z,1.95
2023-05-25T03:34:26.677Z,2.00
2023-05-25T03:36:55.092Z,1.80
2023-05-25T03:39:23.072Z,1.90
2023-05-25T03:41:51.180Z,1.50
2023-05-25T03:44:18.787Z,1.70
2023-05-25T03:46:46.434Z,1.80
2023-05-25T03:49:14.526Z,1.80
2023-05-25T03:51:42.070Z,1.80
2023-05-25T03:54:09.654Z,2.03
2023-05-25T03:56:37.216Z,1.80
2023-05-25T03:59:04.808Z,1.88
2023-05-25T04:01:32.408Z,1.67
2023-05-25T04:04:00.102Z,1.65
2023-05-25T04:06:30.051Z,1.90
2023-05-25T04:08:58.152Z,1.80
2023-05-25T04:11:25.824Z,1.92
2023-05-25T04:13:53.684Z,1.90
2023-05-25T04:16:23.560Z,1.85
2023-05-25T04:18:51.176Z,1.63
2023-05-25T04:21:18.730Z,2.10
2023-05-25T04:23:46.316Z,2.20
2023-05-25T04:26:15.746Z,2.03
2023-05-25T04:28:43.383Z,1.90
2023-05-25T04:31:12.957Z,2.10
2023-05-25T04:33:40.754Z,2.00
2023-05-25T04:36:08.784Z,2.08
2023-05-25T04:38:36.489Z,2.05
2023-05-25T04:41:04.076Z,1.73
2023-05-25T04:43:31.654Z,2.20
2023-05-25T04:45:59.804Z,2.03
2023-05-25T04:48:28.461Z,1.90
2023-05-25T04:50:56.785Z,2.28
2023-05-25T04:53:24.347Z,2.17
2023-05-25T04:55:51.994Z,2.10
2023-05-25T04:58:19.584Z,2.58
2023-05-25T05:00:47.241Z,2.30
2023-05-25T05:03:14.850Z,2.30
2023-05-25T05:05:43.871Z,2.40
2023-05-25T05:08:11.648Z,2.60
2023-05-25T05:10:39.249Z,2.60
2023-05-25T05:13:07.132Z,2.22
2023-05-25T05:15:34.669Z,2.67
2023-05-25T05:18:02.310Z,2.83
2023-05-25T05:20:29.977Z,2.65
2023-05-25T05:22:57.573Z,2.42
2023-05-25T05:25:25.132Z,2.25
2023-05-25T05:27:52.674Z,2.40
2023-05-25T05:30:20.222Z,2.40
2023-05-25T05:32:47.829Z,3.00
2023-05-25T05:35:15.509Z,2.53
2023-05-25T05:37:44.014Z,2.90
2023-05-25T05:40:11.906Z,2.70
2023-05-25T05:42:39.433Z,2.30
2023-05-25T05:45:06.995Z,2.15
2023-05-25T05:47:34.582Z,2.58
2023-05-25T05:50:02.137Z,2.35
2023-05-25T05:52:29.678Z,2.30
2023-05-25T05:54:57.205Z,2.22
2023-05-25T05:57:24.731Z,2.40
2023-05-25T05:59:52.266Z,2.45
2023-05-25T06:02:19.901Z,3.03
2023-05-25T06:04:47.845Z,2.42
2023-05-25T06:07:15.462Z,2.58
2023-05-25T06:09:43.045Z,1.73
2023-05-25T06:12:10.611Z,1.90
2023-05-25T06:14:38.190Z,2.15
2023-05-25T06:17:05.916Z,3.05
2023-05-25T06:19:33.511Z,2.60
2023-05-25T06:22:01.310Z,2.70
2023-05-25T06:24:28.895Z,2.35
2023-05-25T06:26:56.442Z,2.90
2023-05-25T06:29:24.011Z,2.00
2023-05-25T06:31:51.639Z,2.15
2023-05-25T06:34:19.308Z,3.60
2023-05-25T06:36:47.734Z,2.80
2023-05-25T06:39:15.391Z,2.42
2023-05-25T06:41:42.998Z,2.40
2023-05-25T06:44:11.064Z,2.30
2023-05-25T06:46:39.282Z,2.13
2023-05-25T06:49:06.945Z,1.98
2023-05-25T06:51:34.516Z,1.85
2023-05-25T06:54:02.190Z,3.60
2023-05-25T06:56:29.844Z,2.08
2023-05-25T06:58:57.436Z,3.15
2023-05-25T07:01:25.025Z,2.80
2023-05-25T07:03:52.664Z,3.10
2023-05-25T07:06:20.302Z,3.67
2023-05-25T07:08:47.899Z,2.75
2023-05-25T07:11:15.727Z,3.65
2023-05-25T07:13:44.338Z,2.05
2023-05-25T07:16:12.041Z,2.30
2023-05-25T07:18:39.652Z,2.85
2023-05-25T07:21:09.938Z,4.38
2023-05-25T07:23:37.532Z,3.38
2023-05-25T07:26:05.967Z,2.92
2023-05-25T07:28:33.921Z,2.75
2023-05-25T07:31:01.601Z,4.93
2023-05-25T07:33:29.239Z,2.90
2023-05-25T07:35:56.898Z,2.13
2023-05-25T07:38:24.498Z,1.90
2023-05-25T07:40:52.602Z,2.92
2023-05-25T07:43:20.235Z,2.10
2023-05-25T07:45:47.798Z,2.30
2023-05-25T07:48:15.573Z,2.63
2023-05-25T07:50:43.324Z,1.60
2023-05-25T07:53:10.896Z,2.22
2023-05-25T07:55:38.480Z,2.70
2023-05-25T07:58:07.456Z,2.80
2023-05-25T08:00:35.053Z,3.17
2023-05-25T08:03:03.626Z,3.28
2023-05-25T08:05:31.346Z,2.10
2023-05-25T08:07:58.956Z,3.08
2023-05-25T08:10:31.272Z,3.10
2023-05-25T08:12:59.000Z,3.13
2023-05-25T08:15:26.663Z,2.55
2023-05-25T08:17:54.238Z,2.85
2023-05-25T08:20:21.934Z,3.05
2023-05-25T08:22:49.857Z,2.50
2023-05-25T08:25:17.410Z,3.13
2023-05-25T08:27:44.977Z,2.28
2023-05-25T08:30:12.595Z,2.50
2023-05-25T08:32:40.138Z,3.83
2023-05-25T08:35:08.031Z,3.40
2023-05-25T08:37:35.638Z,3.75
2023-05-25T08:40:03.279Z,3.63
2023-05-25T08:42:30.840Z,3.47
2023-05-25T08:44:58.885Z,3.63
2023-05-25T08:47:26.577Z,3.50
2023-05-25T08:49:54.329Z,3.20
2023-05-25T08:52:22.076Z,3.35
2023-05-25T08:54:49.777Z,3.28
2023-05-25T08:57:17.346Z,2.45
2023-05-25T08:59:45.051Z,3.13
2023-05-25T09:02:12.733Z,4.05
2023-05-25T09:04:40.593Z,3.58
2023-05-25T09:07:10.869Z,2.70
2023-05-25T09:09:39.556Z,3.67
2023-05-25T09:12:07.165Z,3.20
2023-05-25T09:14:34.700Z,2.92
2023-05-25T09:17:02.341Z,2.03
2023-05-25T09:19:29.919Z,3.25
2023-05-25T09:22:10.728Z,2.80
2023-05-25T09:24:44.051Z,3.20
2023-05-25T09:27:11.656Z,2.38
2023-05-25T09:29:39.263Z,2.50
2023-05-25T09:32:07.089Z,2.72
2023-05-25T09:34:34.799Z,1.90
2023-05-25T09:37:02.495Z,2.25
2023-05-25T09:39:30.200Z,1.88
2023-05-25T09:41:57.776Z,2.40
2023-05-25T09:44:25.381Z,2.28
2023-05-25T09:46:52.952Z,2.53
2023-05-25T09:49:20.934Z,2.93
2023-05-25T09:51:48.563Z,2.22
2023-05-25T09:54:16.163Z,2.53
2023-05-25T09:56:43.773Z,2.38
2023-05-25T09:59:11.348Z,2.00
2023-05-25T10:01:39.327Z,1.70
2023-05-25T10:04:07.714Z,1.70
2023-05-25T10:06:35.294Z,2.83
2023-05-25T10:09:05.010Z,1.90
2023-05-25T10:11:32.755Z,2.40
2023-05-25T10:14:03.800Z,2.55
2023-05-25T10:16:31.650Z,2.70
2023-05-25T10:18:59.228Z,2.60
2023-05-25T10:21:26.816Z,2.00
2023-05-25T10:23:54.393Z,2.13
2023-05-25T10:26:22.662Z,2.88
2023-05-25T10:28:50.287Z,2.60
2023-05-25T10:31:18.006Z,2.10
2023-05-25T10:33:49.172Z,2.70
2023-05-25T10:36:19.806Z,2.47
2023-05-25T10:38:47.463Z,2.42
2023-05-25T10:41:15.973Z,2.97
2023-05-25T10:43:44.747Z,2.10
2023-05-25T10:46:15.025Z,2.45
2023-05-25T10:48:42.613Z,2.33
2023-05-25T10:51:11.848Z,2.38
2023-05-25T10:53:39.761Z,1.90
2023-05-25T10:56:07.402Z,2.05
2023-05-25T10:58:35.110Z,2.67
2023-05-25T11:01:02.744Z,2.25
2023-05-25T11:03:30.396Z,2.05
2023-05-25T11:05:57.947Z,2.50
2023-05-25T11:08:25.482Z,2.92
2023-05-25T11:10:53.926Z,1.88
2023-05-25T11:13:21.483Z,2.58
2023-05-25T11:15:49.046Z,2.00
2023-05-25T11:18:16.647Z,2.55
2023-05-25T11:20:44.415Z,1.85
2023-05-25T11:23:12.047Z,1.95
2023-05-25T11:25:39.709Z,2.30
2023-05-25T11:28:07.569Z,2.30
2023-05-25T11:30:35.149Z,2.13
2023-05-25T11:33:03.180Z,1.90
2023-05-25T11:35:33.629Z,1.90
2023-05-25T11:38:02.163Z,2.00
2023-05-25T11:40:29.687Z,2.38
2023-05-25T11:43:00.514Z,2.50
2023-05-25T11:45:28.411Z,2.03
2023-05-25T11:47:57.028Z,2.08
2023-05-25T11:50:24.604Z,2.10
2023-05-25T11:52:52.172Z,1.60
2023-05-25T11:55:19.699Z,2.42
2023-05-25T11:57:47.255Z,2.00
2023-05-25T12:00:14.900Z,2.58
2023-05-25T12:02:43.520Z,1.75
2023-05-25T12:05:12.005Z,2.00
2023-05-25T12:07:39.614Z,1.65
2023-05-25T12:10:07.369Z,2.00
2023-05-25T12:12:34.950Z,2.13
2023-05-25T12:15:02.536Z,1.80
2023-05-25T12:17:30.270Z,2.10
2023-05-25T12:19:57.980Z,1.80
2023-05-25T12:22:25.588Z,2.03
2023-05-25T12:24:53.185Z,1.98
2023-05-25T12:27:20.951Z,2.35
2023-05-25T12:29:48.538Z,2.00
2023-05-25T12:32:16.188Z,2.22
2023-05-25T12:34:43.806Z,2.72
2023-05-25T12:37:11.366Z,1.95
2023-05-25T12:39:39.809Z,2.17
2023-05-25T12:42:07.652Z,1.80
2023-05-25T12:44:35.232Z,1.70
2023-05-25T12:47:03.066Z,2.13
2023-05-25T12:49:30.846Z,2.30
2023-05-25T12:51:58.421Z,2.08
2023-05-25T12:54:26.120Z,2.22
2023-05-25T12:56:53.694Z,2.17
2023-05-25T12:59:21.256Z,1.95
2023-05-25T13:01:48.815Z,2.08
2023-05-25T13:04:16.394Z,2.20
2023-05-25T13:06:43.934Z,2.03
2023-05-25T13:09:11.558Z,2.22
2023-05-25T13:11:39.215Z,2.00
2023-05-25T13:14:06.859Z,2.10
2023-05-25T13:16:34.453Z,2.05
2023-05-25T13:19:02.012Z,2.10
2023-05-25T13:21:29.566Z,2.00
2023-05-25T13:23:57.245Z,1.70
2023-05-25T13:26:25.657Z,2.03
2023-05-25T13:28:53.221Z,2.08
2023-05-25T13:31:20.812Z,2.10
2023-05-25T13:33:48.366Z,1.98
2023-05-25T13:36:15.946Z,1.98
2023-05-25T13:38:43.514Z,2.20
2023-05-25T13:41:11.373Z,2.10
2023-05-25T13:43:38.919Z,2.08
2023-05-25T13:46:06.478Z,2.47
2023-05-25T13:48:34.058Z,2.80
2023-05-25T13:51:03.290Z,2.20
2023-05-25T13:53:31.593Z,2.10
2023-05-25T13:58:41.992Z,2.10
2023-05-25T14:01:09.637Z,2.30
2023-05-25T14:03:37.415Z,1.90
2023-05-25T14:06:05.654Z,2.30
2023-05-25T14:08:33.180Z,2.10
2023-05-25T14:11:00.797Z,2.10
2023-05-25T14:13:28.359Z,2.08
2023-05-25T14:15:55.953Z,2.25
2023-05-25T14:18:23.594Z,2.28
2023-05-25T14:20:51.164Z,1.75
2023-05-25T14:23:19.280Z,2.10
2023-05-25T14:25:48.605Z,2.33
2023-05-25T14:28:16.184Z,2.28
2023-05-25T14:30:43.736Z,2.15
2023-05-25T14:33:14.041Z,2.60
2023-05-25T14:35:42.562Z,2.30
2023-05-25T14:38:10.453Z,1.92
2023-05-25T14:40:38.018Z,1.80
2023-05-25T14:43:05.588Z,1.98
2023-05-25T14:45:33.157Z,1.95
2023-05-25T14:48:15.210Z,2.15
2023-05-25T14:50:44.586Z,1.83
2023-05-25T14:53:12.487Z,2.00
2023-05-25T14:55:41.298Z,1.77
2023-05-25T14:58:08.892Z,2.28
2023-05-25T15:00:36.498Z,2.00
2023-05-25T15:03:04.168Z,2.00
2023-05-25T15:05:31.805Z,2.08
2023-05-25T15:07:59.915Z,2.05
2023-05-25T15:10:27.482Z,1.88
2023-05-25T15:12:55.048Z,1.90
2023-05-25T15:15:22.613Z,1.98
2023-05-25T15:17:50.208Z,2.10
2023-05-25T15:20:17.917Z,2.10
2023-05-25T15:22:45.955Z,2.10
2023-05-25T15:25:18.898Z,2.05
2023-05-25T15:27:51.013Z,1.80
2023-05-25T15:30:19.280Z,1.83
2023-05-25T15:32:46.893Z,2.10
2023-05-25T15:35:14.481Z,2.45
2023-05-25T15:37:43.058Z,2.15
2023-05-25T15:40:14.612Z,2.10
2023-05-25T15:42:43.059Z,2.17
2023-05-25T15:45:10.678Z,1.80
2023-05-25T15:47:38.321Z,1.98
2023-05-25T15:50:10.673Z,2.20
2023-05-25T15:52:38.243Z,2.17
2023-05-25T15:55:05.871Z,1.83
2023-05-25T15:57:33.564Z,1.90
2023-05-25T16:00:01.206Z,2.50
2023-05-25T16:02:28.848Z,2.35
2023-05-25T16:04:56.547Z,2.75
2023-05-25T16:07:24.173Z,2.30
2023-05-25T16:09:51.808Z,2.35
2023-05-25T16:12:19.543Z,2.60
2023-05-25T16:14:47.135Z,2.30
2023-05-25T16:17:15.475Z,2.20
2023-05-25T16:19:43.468Z,2.30
2023-05-25T16:22:11.231Z,2.53
2023-05-25T16:24:40.363Z,2.38
2023-05-25T16:27:08.494Z,2.30
2023-05-25T16:29:36.233Z,2.38
2023-05-25T16:32:10.798Z,2.15
2023-05-25T16:34:38.423Z,2.40
2023-05-25T16:37:06.019Z,2.63
2023-05-25T16:39:33.863Z,2.47
2023-05-25T16:42:02.439Z,2.28
2023-05-25T16:44:30.152Z,2.38
2023-05-25T16:46:57.763Z,2.40
2023-05-25T16:49:25.386Z,2.83
2023-05-25T16:51:53.157Z,2.25
2023-05-25T16:54:20.848Z,2.15
2023-05-25T16:56:48.575Z,2.13
2023-05-25T16:59:16.153Z,2.30
2023-05-25T17:01:43.849Z,2.60
2023-05-25T17:04:11.605Z,2.45
2023-05-25T17:06:39.215Z,2.25
2023-05-25T17:09:21.374Z,2.65
2023-05-25T17:12:01.979Z,2.40
2023-05-25T17:14:52.877Z,2.10
2023-05-25T17:17:20.653Z,2.42
2023-05-25T17:19:48.342Z,1.90
2023-05-25T17:22:16.166Z,2.15
2023-05-25T17:24:43.842Z,2.10
2023-05-25T17:27:11.524Z,2.05
2023-05-25T17:29:39.190Z,2.20
2023-05-25T17:32:07.007Z,2.30
2023-05-25T17:34:34.610Z,2.13
2023-05-25T17:37:02.150Z,2.00
2023-05-25T17:39:29.830Z,1.90
2023-05-25T17:41:57.954Z,2.03
2023-05-25T17:44:26.096Z,2.10
2023-05-25T17:46:53.718Z,2.20
2023-05-25T17:49:23.042Z,2.10
2023-05-25T17:51:50.675Z,2.10
2023-05-25T17:54:18.542Z,2.00
2023-05-25T17:56:46.459Z,2.17
2023-05-25T17:59:14.055Z,2.15
2023-05-25T18:01:42.032Z,2.30
2023-05-25T18:04:10.233Z,2.40
2023-05-25T18:06:38.071Z,2.20
2023-05-25T18:09:06.494Z,1.95
2023-05-25T18:11:36.776Z,2.15
2023-05-25T18:14:05.477Z,2.10
2023-05-25T18:16:33.632Z,2.00
2023-05-25T18:19:02.603Z,2.13
2023-05-25T18:21:30.166Z,1.92
2023-05-25T18:23:57.869Z,2.20
2023-05-25T18:26:25.487Z,2.20
2023-05-25T18:28:53.066Z,2.40
2023-05-25T18:31:20.945Z,2.17
2023-05-25T18:33:48.706Z,2.50
2023-05-25T18:36:16.302Z,2.20
2023-05-25T18:38:44.040Z,2.53
2023-05-25T18:41:11.656Z,2.25
2023-05-25T18:43:39.292Z,2.72
2023-05-25T18:46:07.035Z,2.70
2023-05-25T18:48:34.936Z,2.33
2023-05-25T18:51:02.911Z,2.78
2023-05-25T18:53:30.653Z,2.75
2023-05-25T18:55:58.441Z,3.00
2023-05-25T18:58:28.238Z,2.95
2023-05-25T19:00:55.912Z,2.65
2023-05-25T19:03:23.636Z,2.85
2023-05-25T19:05:51.260Z,2.78
2023-05-25T19:08:18.898Z,2.70
2023-05-25T19:10:46.540Z,2.70
2023-05-25T19:13:14.112Z,2.80
2023-05-25T19:15:41.733Z,3.00
2023-05-25T19:18:09.618Z,2.70
2023-05-25T19:20:37.305Z,2.70
2023-05-25T19:23:04.941Z,2.70
2023-05-25T19:25:32.516Z,2.78
2023-05-25T19:28:00.650Z,2.60
2023-05-25T19:30:28.306Z,2.63
2023-05-25T19:32:55.959Z,2.45
2023-05-25T19:35:24.164Z,2.70
2023-05-25T19:37:52.074Z,2.60
2023-05-25T19:40:19.726Z,2.90
2023-05-25T19:42:47.469Z,2.95
2023-05-25T19:45:15.053Z,3.00
2023-05-25T19:47:42.626Z,2.60
2023-05-25T19:50:10.887Z,3.00
2023-05-25T19:52:38.703Z,2.80
2023-05-25T19:55:06.394Z,2.80
2023-05-25T19:57:33.958Z,2.90
2023-05-25T20:00:01.553Z,2.80
2023-05-25T20:02:29.183Z,2.85
2023-05-25T20:04:56.846Z,2.70
2023-05-25T20:07:24.799Z,2.80
2023-05-25T20:09:52.436Z,2.80
2023-05-25T20:12:21.745Z,2.78
2023-05-25T20:14:49.327Z,2.60
2023-05-25T20:17:17.055Z,2.72
2023-05-25T20:19:44.734Z,2.92
2023-05-25T20:22:12.297Z,2.70
2023-05-25T20:24:40.059Z,2.35
2023-05-25T20:27:07.623Z,2.30
2023-05-25T20:29:35.201Z,2.38
2023-05-25T20:32:03.226Z,2.75
2023-05-25T20:34:30.937Z,2.50
2023-05-25T20:36:58.731Z,2.80
2023-05-25T20:39:26.484Z,2.20
2023-05-25T20:41:54.039Z,2.38
2023-05-25T20:44:21.803Z,2.78
2023-05-25T20:46:49.378Z,2.45
2023-05-25T20:49:16.918Z,2.58
2023-05-25T20:51:49.899Z,2.60
2023-05-25T20:54:17.650Z,2.70
2023-05-25T20:56:48.192Z,2.60
2023-05-25T20:59:15.992Z,2.30
2023-05-25T21:01:44.195Z,2.42
2023-05-25T21:04:11.834Z,2.35
2023-05-25T21:06:39.715Z,2.25
2023-05-25T21:09:07.384Z,2.65
2023-05-25T21:11:35.056Z,2.60
2023-05-25T21:14:03.270Z,2.70
2023-05-25T21:16:30.945Z,2.60
2023-05-25T21:18:58.571Z,2.50
2023-05-25T21:21:27.987Z,2.40
2023-05-25T21:23:55.877Z,2.60
2023-05-25T21:26:23.457Z,2.78
2023-05-25T21:28:51.096Z,2.50
2023-05-25T21:31:20.308Z,2.38
2023-05-25T21:33:47.922Z,2.22
2023-05-25T21:36:15.490Z,2.30
2023-05-25T21:38:43.134Z,2.55
2023-05-25T21:41:10.758Z,2.58
2023-05-25T21:43:38.354Z,2.80
2023-05-25T21:46:05.953Z,2.72
2023-05-25T21:48:33.523Z,2.88
2023-05-25T21:51:01.109Z,2.92
2023-05-25T21:53:28.735Z,2.70
2023-05-25T21:55:56.403Z,2.70
2023-05-25T21:58:24.206Z,2.75
2023-05-25T22:00:51.800Z,2.70
2023-05-25T22:03:24.683Z,2.45
2023-05-25T22:05:52.697Z,2.70
2023-05-25T22:08:20.702Z,2.92
2023-05-25T22:10:48.450Z,2.63
2023-05-25T22:13:16.111Z,2.40
2023-05-25T22:15:43.999Z,2.90
2023-05-25T22:18:11.823Z,2.53
2023-05-25T22:20:41.600Z,2.53
2023-05-25T22:23:09.592Z,2.45
2023-05-25T22:25:37.216Z,2.60
2023-05-25T22:28:04.841Z,2.63
2023-05-25T22:30:32.456Z,2.40
2023-05-25T22:33:00.191Z,2.78
2023-05-25T22:35:27.804Z,2.50
2023-05-25T22:37:55.413Z,2.58
2023-05-25T22:40:23.047Z,2.40
2023-05-25T22:42:50.781Z,2.50
2023-05-25T22:45:18.387Z,2.58
2023-05-25T22:47:46.194Z,2.80
2023-05-25T22:50:13.853Z,2.30
2023-05-25T22:52:41.436Z,2.53
2023-05-25T22:55:09.001Z,2.63
2023-05-25T22:57:36.609Z,2.97
2023-05-25T23:00:04.825Z,2.80
2023-05-25T23:02:32.524Z,2.50
2023-05-25T23:05:00.126Z,2.70
2023-05-25T23:07:27.809Z,2.30
2023-05-25T23:09:55.401Z,2.75
2023-05-25T23:12:23.430Z,2.70
2023-05-25T23:14:51.818Z,2.40
2023-05-25T23:17:19.448Z,2.10
2023-05-25T23:19:47.004Z,2.40
2023-05-25T23:22:14.786Z,2.60
2023-05-25T23:24:42.366Z,2.53
2023-05-25T23:27:10.175Z,2.75
2023-05-25T23:29:37.911Z,2.70
2023-05-25T23:32:05.772Z,2.35
2023-05-25T23:34:33.381Z,2.63
2023-05-25T23:37:01.472Z,2.58
2023-05-25T23:39:29.099Z,2.40
2023-05-25T23:41:56.672Z,2.55
2023-05-25T23:44:24.280Z,2.63
2023-05-25T23:46:52.106Z,2.60
2023-05-25T23:49:19.727Z,2.80
2023-05-25T23:51:47.360Z,2.53
2023-05-25T23:54:14.946Z,2.88
2023-05-25T23:56:42.535Z,2.30
2023-05-25T23:59:12.145Z,2.40
